Tarim, Yemen
Current Conditions -  °F | °C
As of 5:00 PM on Wednesday 22 Oct 2014 (Local Time) from OYRN Reporting Station
Clear Clear  
Wind Chill: 84°   Ceiling: Unl
Heat Index: 90°   Visibility: 6mi
Dew Point: 72°   Wind: 6mph
Humidity: 66%   Direction: 140°SE
Pressure: 29.91"   Gusts: NA
Location:  16.06°N, 49°E
Report Text: OYRN 221400Z 14005KT 100V170 CAVOK 29/22 Q1013
Loading
Personal Weather Stations






























Interactive Weather Map
Tropical Storm Tracking
New forecast layout! Learn more

10-Day Weather Forecast

Advertisements
Track Severe Weather on mobile